sensor_id;sensor_type;location;lat;lon;timestamp;P1;durP1;ratioP1;P2;durP2;ratioP2
19251;SDS011;9760;50.944;5.304;2023-06-24T00:00:58;13.77;;;8.37;;
19251;SDS011;9760;50.944;5.304;2023-06-24T00:03:24;16.13;;;8.73;;
19251;SDS011;9760;50.944;5.304;2023-06-24T00:05:49;18.20;;;9.30;;
19251;SDS011;9760;50.944;5.304;2023-06-24T00:08:15;19.77;;;9.00;;
19251;SDS011;9760;50.944;5.304;2023-06-24T00:10:46;17.57;;;8.87;;
19251;SDS011;9760;50.944;5.304;2023-06-24T00:13:12;13.97;;;8.93;;
19251;SDS011;9760;50.944;5.304;2023-06-24T00:15:39;15.23;;;9.10;;
19251;SDS011;9760;50.944;5.304;2023-06-24T00:18:11;13.70;;;8.33;;
19251;SDS011;9760;50.944;5.304;2023-06-24T00:20:38;17.60;;;9.53;;
19251;SDS011;9760;50.944;5.304;2023-06-24T00:23:06;18.03;;;9.53;;
19251;SDS011;9760;50.944;5.304;2023-06-24T00:25:32;14.20;;;9.23;;
19251;SDS011;9760;50.944;5.304;2023-06-24T00:27:57;16.23;;;8.93;;
19251;SDS011;9760;50.944;5.304;2023-06-24T00:30:23;15.10;;;9.97;;
19251;SDS011;9760;50.944;5.304;2023-06-24T00:32:51;16.83;;;10.07;;
19251;SDS011;9760;50.944;5.304;2023-06-24T00:35:17;17.70;;;10.30;;
19251;SDS011;9760;50.944;5.304;2023-06-24T00:37:43;15.40;;;9.97;;
19251;SDS011;9760;50.944;5.304;2023-06-24T00:40:10;19.33;;;10.30;;
19251;SDS011;9760;50.944;5.304;2023-06-24T00:42:36;13.60;;;9.77;;
19251;SDS011;9760;50.944;5.304;2023-06-24T00:45:03;17.50;;;10.00;;
19251;SDS011;9760;50.944;5.304;2023-06-24T00:47:30;17.10;;;9.80;;
19251;SDS011;9760;50.944;5.304;2023-06-24T00:49:57;16.27;;;9.80;;
19251;SDS011;9760;50.944;5.304;2023-06-24T00:52:22;14.57;;;9.90;;
19251;SDS011;9760;50.944;5.304;2023-06-24T00:54:49;18.23;;;10.00;;
19251;SDS011;9760;50.944;5.304;2023-06-24T00:57:14;16.87;;;10.10;;
19251;SDS011;9760;50.944;5.304;2023-06-24T00:59:42;17.20;;;10.53;;
19251;SDS011;9760;50.944;5.304;2023-06-24T01:02:10;20.23;;;11.33;;
19251;SDS011;9760;50.944;5.304;2023-06-24T01:04:37;23.83;;;10.60;;
19251;SDS011;9760;50.944;5.304;2023-06-24T01:07:03;17.37;;;10.87;;
19251;SDS011;9760;50.944;5.304;2023-06-24T01:09:30;25.00;;;11.27;;
19251;SDS011;9760;50.944;5.304;2023-06-24T01:11:56;21.20;;;10.43;;
19251;SDS011;9760;50.944;5.304;2023-06-24T01:14:22;20.67;;;10.63;;
19251;SDS011;9760;50.944;5.304;2023-06-24T01:22:13;15.27;;;10.67;;
19251;SDS011;9760;50.944;5.304;2023-06-24T01:24:57;16.97;;;10.27;;
19251;SDS011;9760;50.944;5.304;2023-06-24T01:33:09;19.17;;;11.10;;
19251;SDS011;9760;50.944;5.304;2023-06-24T01:35:39;18.17;;;11.53;;
19251;SDS011;9760;50.944;5.304;2023-06-24T01:38:08;19.90;;;10.60;;
19251;SDS011;9760;50.944;5.304;2023-06-24T01:40:43;21.30;;;11.57;;
19251;SDS011;9760;50.944;5.304;2023-06-24T01:43:10;23.97;;;11.73;;
19251;SDS011;9760;50.944;5.304;2023-06-24T01:45:40;19.70;;;11.60;;
19251;SDS011;9760;50.944;5.304;2023-06-24T01:48:41;24.47;;;12.70;;
19251;SDS011;9760;50.944;5.304;2023-06-24T01:51:01;17.57;;;10.43;;
19251;SDS011;9760;50.944;5.304;2023-06-24T01:53:42;24.70;;;11.63;;
19251;SDS011;9760;50.944;5.304;2023-06-24T01:56:12;16.70;;;10.77;;
19251;SDS011;9760;50.944;5.304;2023-06-24T01:58:40;22.67;;;12.17;;
19251;SDS011;9760;50.944;5.304;2023-06-24T02:01:08;16.50;;;10.67;;
19251;SDS011;9760;50.944;5.304;2023-06-24T02:03:35;23.30;;;11.40;;
19251;SDS011;9760;50.944;5.304;2023-06-24T02:06:01;20.60;;;10.80;;
19251;SDS011;9760;50.944;5.304;2023-06-24T02:08:30;20.03;;;11.60;;
19251;SDS011;9760;50.944;5.304;2023-06-24T02:10:58;18.43;;;10.57;;
19251;SDS011;9760;50.944;5.304;2023-06-24T02:13:26;19.27;;;11.53;;
19251;SDS011;9760;50.944;5.304;2023-06-24T02:15:53;21.27;;;10.97;;
19251;SDS011;9760;50.944;5.304;2023-06-24T02:18:20;21.20;;;11.00;;
19251;SDS011;9760;50.944;5.304;2023-06-24T02:20:48;16.43;;;10.77;;
19251;SDS011;9760;50.944;5.304;2023-06-24T02:23:15;20.67;;;11.10;;
19251;SDS011;9760;50.944;5.304;2023-06-24T02:25:42;17.10;;;10.57;;
19251;SDS011;9760;50.944;5.304;2023-06-24T02:28:08;25.07;;;11.23;;
19251;SDS011;9760;50.944;5.304;2023-06-24T02:30:34;22.60;;;11.00;;
19251;SDS011;9760;50.944;5.304;2023-06-24T02:33:02;18.73;;;12.27;;
19251;SDS011;9760;50.944;5.304;2023-06-24T02:35:28;20.70;;;12.40;;
19251;SDS011;9760;50.944;5.304;2023-06-24T02:37:54;21.00;;;12.87;;
19251;SDS011;9760;50.944;5.304;2023-06-24T02:40:19;22.87;;;14.03;;
19251;SDS011;9760;50.944;5.304;2023-06-24T02:42:45;20.23;;;12.47;;
19251;SDS011;9760;50.944;5.304;2023-06-24T02:45:11;19.90;;;11.87;;
19251;SDS011;9760;50.944;5.304;2023-06-24T02:47:37;21.13;;;12.87;;
19251;SDS011;9760;50.944;5.304;2023-06-24T02:50:04;24.83;;;13.77;;
19251;SDS011;9760;50.944;5.304;2023-06-24T02:52:32;23.13;;;12.80;;
19251;SDS011;9760;50.944;5.304;2023-06-24T02:55:01;19.17;;;12.50;;
19251;SDS011;9760;50.944;5.304;2023-06-24T02:57:27;21.83;;;13.40;;
19251;SDS011;9760;50.944;5.304;2023-06-24T02:59:53;23.07;;;12.60;;
19251;SDS011;9760;50.944;5.304;2023-06-24T03:02:19;22.47;;;13.03;;
19251;SDS011;9760;50.944;5.304;2023-06-24T03:04:45;26.23;;;12.63;;
19251;SDS011;9760;50.944;5.304;2023-06-24T03:07:12;20.90;;;12.23;;
19251;SDS011;9760;50.944;5.304;2023-06-24T03:09:38;30.70;;;13.30;;
19251;SDS011;9760;50.944;5.304;2023-06-24T03:12:05;24.57;;;13.50;;
19251;SDS011;9760;50.944;5.304;2023-06-24T03:14:31;20.43;;;13.10;;
19251;SDS011;9760;50.944;5.304;2023-06-24T03:16:56;21.80;;;13.23;;
19251;SDS011;9760;50.944;5.304;2023-06-24T03:19:22;21.43;;;13.57;;
19251;SDS011;9760;50.944;5.304;2023-06-24T03:21:48;27.83;;;13.37;;
19251;SDS011;9760;50.944;5.304;2023-06-24T03:24:13;20.90;;;13.67;;
19251;SDS011;9760;50.944;5.304;2023-06-24T03:26:39;27.47;;;13.27;;
19251;SDS011;9760;50.944;5.304;2023-06-24T03:29:05;29.17;;;14.60;;
19251;SDS011;9760;50.944;5.304;2023-06-24T03:31:32;32.87;;;15.50;;
19251;SDS011;9760;50.944;5.304;2023-06-24T03:33:58;26.13;;;14.63;;
19251;SDS011;9760;50.944;5.304;2023-06-24T03:36:23;28.70;;;15.10;;
19251;SDS011;9760;50.944;5.304;2023-06-24T03:38:49;24.47;;;14.57;;
19251;SDS011;9760;50.944;5.304;2023-06-24T03:41:15;28.77;;;16.30;;
19251;SDS011;9760;50.944;5.304;2023-06-24T03:43:41;28.63;;;14.57;;
19251;SDS011;9760;50.944;5.304;2023-06-24T03:46:07;24.57;;;14.70;;
19251;SDS011;9760;50.944;5.304;2023-06-24T03:48:33;27.27;;;15.47;;
19251;SDS011;9760;50.944;5.304;2023-06-24T03:50:59;26.70;;;14.23;;
19251;SDS011;9760;50.944;5.304;2023-06-24T03:53:25;31.03;;;16.00;;
19251;SDS011;9760;50.944;5.304;2023-06-24T03:55:50;27.63;;;15.47;;
19251;SDS011;9760;50.944;5.304;2023-06-24T03:58:16;23.90;;;14.53;;
19251;SDS011;9760;50.944;5.304;2023-06-24T04:00:42;26.23;;;15.30;;
19251;SDS011;9760;50.944;5.304;2023-06-24T04:03:09;26.93;;;15.03;;
19251;SDS011;9760;50.944;5.304;2023-06-24T04:05:35;24.50;;;14.43;;
19251;SDS011;9760;50.944;5.304;2023-06-24T04:08:00;26.77;;;14.93;;
19251;SDS011;9760;50.944;5.304;2023-06-24T04:10:28;27.90;;;14.67;;
19251;SDS011;9760;50.944;5.304;2023-06-24T04:12:54;29.07;;;14.80;;
19251;SDS011;9760;50.944;5.304;2023-06-24T04:15:19;22.10;;;14.87;;
19251;SDS011;9760;50.944;5.304;2023-06-24T04:17:45;34.03;;;14.83;;
19251;SDS011;9760;50.944;5.304;2023-06-24T04:20:11;34.23;;;16.10;;
19251;SDS011;9760;50.944;5.304;2023-06-24T04:22:37;32.03;;;15.90;;
19251;SDS011;9760;50.944;5.304;2023-06-24T04:25:06;27.67;;;16.77;;
19251;SDS011;9760;50.944;5.304;2023-06-24T04:27:33;23.00;;;14.07;;
19251;SDS011;9760;50.944;5.304;2023-06-24T04:29:59;27.17;;;14.57;;
19251;SDS011;9760;50.944;5.304;2023-06-24T04:32:25;29.00;;;14.07;;
19251;SDS011;9760;50.944;5.304;2023-06-24T04:34:51;23.87;;;13.40;;
19251;SDS011;9760;50.944;5.304;2023-06-24T04:37:16;26.90;;;13.77;;
19251;SDS011;9760;50.944;5.304;2023-06-24T04:39:45;20.33;;;11.47;;
19251;SDS011;9760;50.944;5.304;2023-06-24T04:42:13;27.63;;;13.43;;
19251;SDS011;9760;50.944;5.304;2023-06-24T04:44:39;26.83;;;13.93;;
19251;SDS011;9760;50.944;5.304;2023-06-24T04:47:05;21.40;;;11.67;;
19251;SDS011;9760;50.944;5.304;2023-06-24T04:49:31;22.30;;;11.10;;
19251;SDS011;9760;50.944;5.304;2023-06-24T04:51:59;19.57;;;10.27;;
19251;SDS011;9760;50.944;5.304;2023-06-24T04:54:25;20.93;;;10.67;;
19251;SDS011;9760;50.944;5.304;2023-06-24T04:56:51;18.07;;;9.40;;
19251;SDS011;9760;50.944;5.304;2023-06-24T04:59:20;19.33;;;9.00;;
19251;SDS011;9760;50.944;5.304;2023-06-24T05:01:46;13.43;;;8.07;;
19251;SDS011;9760;50.944;5.304;2023-06-24T05:04:12;16.07;;;8.50;;
19251;SDS011;9760;50.944;5.304;2023-06-24T05:06:37;14.17;;;7.83;;
19251;SDS011;9760;50.944;5.304;2023-06-24T05:09:03;18.37;;;8.13;;
19251;SDS011;9760;50.944;5.304;2023-06-24T05:11:29;13.13;;;8.40;;
19251;SDS011;9760;50.944;5.304;2023-06-24T05:13:54;15.03;;;7.93;;
19251;SDS011;9760;50.944;5.304;2023-06-24T05:16:21;16.37;;;8.13;;
19251;SDS011;9760;50.944;5.304;2023-06-24T05:18:47;15.27;;;8.83;;
19251;SDS011;9760;50.944;5.304;2023-06-24T05:21:12;12.83;;;7.80;;
19251;SDS011;9760;50.944;5.304;2023-06-24T05:23:38;13.70;;;7.60;;
19251;SDS011;9760;50.944;5.304;2023-06-24T05:26:03;13.97;;;6.90;;
19251;SDS011;9760;50.944;5.304;2023-06-24T05:28:29;14.83;;;7.67;;
19251;SDS011;9760;50.944;5.304;2023-06-24T05:30:55;14.93;;;8.10;;
19251;SDS011;9760;50.944;5.304;2023-06-24T05:33:22;14.73;;;7.20;;
19251;SDS011;9760;50.944;5.304;2023-06-24T05:35:47;15.80;;;7.67;;
19251;SDS011;9760;50.944;5.304;2023-06-24T05:38:14;18.37;;;6.73;;
19251;SDS011;9760;50.944;5.304;2023-06-24T05:40:40;14.57;;;7.63;;
19251;SDS011;9760;50.944;5.304;2023-06-24T05:43:05;12.07;;;6.30;;
19251;SDS011;9760;50.944;5.304;2023-06-24T05:45:31;12.57;;;6.40;;
19251;SDS011;9760;50.944;5.304;2023-06-24T05:47:57;10.90;;;6.30;;
19251;SDS011;9760;50.944;5.304;2023-06-24T05:50:22;18.10;;;7.33;;
19251;SDS011;9760;50.944;5.304;2023-06-24T05:52:48;13.57;;;8.33;;
19251;SDS011;9760;50.944;5.304;2023-06-24T05:55:13;26.17;;;10.90;;
19251;SDS011;9760;50.944;5.304;2023-06-24T05:57:39;23.13;;;11.03;;
19251;SDS011;9760;50.944;5.304;2023-06-24T06:00:05;13.10;;;6.93;;
19251;SDS011;9760;50.944;5.304;2023-06-24T06:02:31;11.87;;;5.80;;
19251;SDS011;9760;50.944;5.304;2023-06-24T06:04:57;12.90;;;6.83;;
19251;SDS011;9760;50.944;5.304;2023-06-24T06:07:23;15.40;;;5.43;;
19251;SDS011;9760;50.944;5.304;2023-06-24T06:09:48;13.23;;;5.87;;
19251;SDS011;9760;50.944;5.304;2023-06-24T06:12:14;7.57;;;4.70;;
19251;SDS011;9760;50.944;5.304;2023-06-24T06:14:39;12.50;;;5.50;;
19251;SDS011;9760;50.944;5.304;2023-06-24T06:17:05;8.83;;;5.10;;
19251;SDS011;9760;50.944;5.304;2023-06-24T06:19:31;6.90;;;4.43;;
19251;SDS011;9760;50.944;5.304;2023-06-24T06:21:56;12.93;;;5.53;;
19251;SDS011;9760;50.944;5.304;2023-06-24T06:24:22;11.73;;;5.13;;
19251;SDS011;9760;50.944;5.304;2023-06-24T06:26:47;13.67;;;5.00;;
19251;SDS011;9760;50.944;5.304;2023-06-24T06:29:13;9.20;;;4.93;;
19251;SDS011;9760;50.944;5.304;2023-06-24T06:31:39;12.60;;;4.80;;
19251;SDS011;9760;50.944;5.304;2023-06-24T06:34:04;10.07;;;4.67;;
19251;SDS011;9760;50.944;5.304;2023-06-24T06:36:30;8.00;;;4.33;;
19251;SDS011;9760;50.944;5.304;2023-06-24T06:38:56;9.17;;;4.83;;
19251;SDS011;9760;50.944;5.304;2023-06-24T06:41:22;11.37;;;4.70;;
19251;SDS011;9760;50.944;5.304;2023-06-24T06:43:53;9.70;;;4.90;;
19251;SDS011;9760;50.944;5.304;2023-06-24T06:46:19;11.23;;;5.17;;
19251;SDS011;9760;50.944;5.304;2023-06-24T06:48:45;12.07;;;5.00;;
19251;SDS011;9760;50.944;5.304;2023-06-24T06:51:11;9.47;;;4.23;;
19251;SDS011;9760;50.944;5.304;2023-06-24T06:53:37;8.20;;;4.27;;
19251;SDS011;9760;50.944;5.304;2023-06-24T06:56:03;5.57;;;3.53;;
19251;SDS011;9760;50.944;5.304;2023-06-24T06:58:29;10.27;;;4.00;;
19251;SDS011;9760;50.944;5.304;2023-06-24T07:00:54;9.30;;;4.47;;
19251;SDS011;9760;50.944;5.304;2023-06-24T07:03:20;10.40;;;4.43;;
19251;SDS011;9760;50.944;5.304;2023-06-24T07:05:46;9.47;;;4.70;;
19251;SDS011;9760;50.944;5.304;2023-06-24T07:08:12;12.33;;;4.80;;
19251;SDS011;9760;50.944;5.304;2023-06-24T07:10:38;10.87;;;3.90;;
19251;SDS011;9760;50.944;5.304;2023-06-24T07:13:03;7.20;;;4.33;;
19251;SDS011;9760;50.944;5.304;2023-06-24T07:15:29;11.70;;;4.53;;
19251;SDS011;9760;50.944;5.304;2023-06-24T07:17:55;6.47;;;3.50;;
19251;SDS011;9760;50.944;5.304;2023-06-24T07:20:21;8.80;;;4.13;;
19251;SDS011;9760;50.944;5.304;2023-06-24T07:22:47;6.83;;;4.07;;
19251;SDS011;9760;50.944;5.304;2023-06-24T07:25:13;10.93;;;4.17;;
19251;SDS011;9760;50.944;5.304;2023-06-24T07:27:39;7.97;;;3.20;;
19251;SDS011;9760;50.944;5.304;2023-06-24T07:30:05;8.10;;;3.20;;
19251;SDS011;9760;50.944;5.304;2023-06-24T07:32:31;7.17;;;3.80;;
19251;SDS011;9760;50.944;5.304;2023-06-24T07:34:56;7.77;;;3.87;;
19251;SDS011;9760;50.944;5.304;2023-06-24T07:37:22;10.87;;;3.23;;
19251;SDS011;9760;50.944;5.304;2023-06-24T07:39:49;7.90;;;3.70;;
19251;SDS011;9760;50.944;5.304;2023-06-24T07:42:15;7.57;;;3.50;;
19251;SDS011;9760;50.944;5.304;2023-06-24T07:44:44;8.43;;;3.30;;
19251;SDS011;9760;50.944;5.304;2023-06-24T07:47:10;10.00;;;3.27;;
19251;SDS011;9760;50.944;5.304;2023-06-24T07:49:36;11.50;;;3.80;;
19251;SDS011;9760;50.944;5.304;2023-06-24T07:52:02;7.97;;;3.10;;
19251;SDS011;9760;50.944;5.304;2023-06-24T07:54:29;7.90;;;3.10;;
19251;SDS011;9760;50.944;5.304;2023-06-24T07:56:55;7.77;;;3.20;;
19251;SDS011;9760;50.944;5.304;2023-06-24T07:59:21;5.13;;;2.60;;
19251;SDS011;9760;50.944;5.304;2023-06-24T08:01:46;6.77;;;2.80;;
19251;SDS011;9760;50.944;5.304;2023-06-24T08:04:13;4.93;;;2.90;;
19251;SDS011;9760;50.944;5.304;2023-06-24T08:06:39;4.97;;;2.53;;
19251;SDS011;9760;50.944;5.304;2023-06-24T08:09:05;13.50;;;3.20;;
19251;SDS011;9760;50.944;5.304;2023-06-24T08:11:30;3.93;;;2.83;;
19251;SDS011;9760;50.944;5.304;2023-06-24T08:13:56;8.93;;;2.63;;
19251;SDS011;9760;50.944;5.304;2023-06-24T08:16:22;2.67;;;1.87;;
19251;SDS011;9760;50.944;5.304;2023-06-24T08:18:47;3.97;;;2.40;;
19251;SDS011;9760;50.944;5.304;2023-06-24T08:21:13;4.80;;;2.30;;
19251;SDS011;9760;50.944;5.304;2023-06-24T08:23:38;4.03;;;2.67;;
19251;SDS011;9760;50.944;5.304;2023-06-24T08:26:05;8.57;;;2.43;;
19251;SDS011;9760;50.944;5.304;2023-06-24T08:28:32;12.83;;;2.70;;
19251;SDS011;9760;50.944;5.304;2023-06-24T08:30:58;4.03;;;2.10;;
19251;SDS011;9760;50.944;5.304;2023-06-24T08:33:24;3.67;;;2.10;;
19251;SDS011;9760;50.944;5.304;2023-06-24T08:35:49;5.53;;;2.40;;
19251;SDS011;9760;50.944;5.304;2023-06-24T08:38:15;4.17;;;2.10;;
19251;SDS011;9760;50.944;5.304;2023-06-24T08:40:40;4.27;;;2.30;;
19251;SDS011;9760;50.944;5.304;2023-06-24T08:43:08;6.57;;;2.33;;
19251;SDS011;9760;50.944;5.304;2023-06-24T08:45:34;5.27;;;2.47;;
19251;SDS011;9760;50.944;5.304;2023-06-24T08:47:59;4.03;;;2.50;;
19251;SDS011;9760;50.944;5.304;2023-06-24T08:50:31;7.53;;;2.10;;
19251;SDS011;9760;50.944;5.304;2023-06-24T08:53:02;5.17;;;1.80;;
19251;SDS011;9760;50.944;5.304;2023-06-24T08:55:32;4.43;;;2.07;;
19251;SDS011;9760;50.944;5.304;2023-06-24T08:58:02;4.67;;;2.33;;
19251;SDS011;9760;50.944;5.304;2023-06-24T09:00:28;3.00;;;2.00;;
19251;SDS011;9760;50.944;5.304;2023-06-24T09:02:54;3.57;;;2.07;;
19251;SDS011;9760;50.944;5.304;2023-06-24T09:05:20;3.97;;;2.20;;
19251;SDS011;9760;50.944;5.304;2023-06-24T09:07:46;5.50;;;2.60;;
19251;SDS011;9760;50.944;5.304;2023-06-24T09:10:28;2.83;;;1.77;;
19251;SDS011;9760;50.944;5.304;2023-06-24T09:12:57;3.37;;;2.17;;
19251;SDS011;9760;50.944;5.304;2023-06-24T09:15:22;3.47;;;2.10;;
19251;SDS011;9760;50.944;5.304;2023-06-24T09:17:48;2.57;;;2.10;;
19251;SDS011;9760;50.944;5.304;2023-06-24T09:20:14;3.37;;;1.97;;
19251;SDS011;9760;50.944;5.304;2023-06-24T09:22:42;5.70;;;2.10;;
19251;SDS011;9760;50.944;5.304;2023-06-24T09:25:08;4.77;;;2.27;;
19251;SDS011;9760;50.944;5.304;2023-06-24T09:27:34;5.53;;;2.40;;
19251;SDS011;9760;50.944;5.304;2023-06-24T09:30:00;3.57;;;2.37;;
19251;SDS011;9760;50.944;5.304;2023-06-24T09:32:29;3.50;;;2.43;;
19251;SDS011;9760;50.944;5.304;2023-06-24T09:34:56;3.67;;;2.30;;
19251;SDS011;9760;50.944;5.304;2023-06-24T09:37:21;3.60;;;2.33;;
19251;SDS011;9760;50.944;5.304;2023-06-24T09:39:52;13.80;;;2.40;;
19251;SDS011;9760;50.944;5.304;2023-06-24T09:42:20;4.67;;;2.77;;
19251;SDS011;9760;50.944;5.304;2023-06-24T09:44:52;5.77;;;2.23;;
19251;SDS011;9760;50.944;5.304;2023-06-24T09:47:19;4.50;;;2.50;;
19251;SDS011;9760;50.944;5.304;2023-06-24T09:49:44;5.90;;;2.60;;
19251;SDS011;9760;50.944;5.304;2023-06-24T09:52:10;4.03;;;2.30;;
19251;SDS011;9760;50.944;5.304;2023-06-24T09:54:41;3.83;;;2.50;;
19251;SDS011;9760;50.944;5.304;2023-06-24T09:57:08;4.83;;;2.33;;
19251;SDS011;9760;50.944;5.304;2023-06-24T09:59:34;6.80;;;2.80;;
19251;SDS011;9760;50.944;5.304;2023-06-24T10:02:02;3.73;;;2.57;;
19251;SDS011;9760;50.944;5.304;2023-06-24T10:04:29;4.33;;;2.70;;
19251;SDS011;9760;50.944;5.304;2023-06-24T10:06:56;6.33;;;2.53;;
19251;SDS011;9760;50.944;5.304;2023-06-24T10:09:23;4.23;;;2.40;;
19251;SDS011;9760;50.944;5.304;2023-06-24T10:11:48;6.17;;;2.47;;
19251;SDS011;9760;50.944;5.304;2023-06-24T10:14:14;3.83;;;2.60;;
19251;SDS011;9760;50.944;5.304;2023-06-24T10:16:40;4.13;;;2.27;;
19251;SDS011;9760;50.944;5.304;2023-06-24T10:19:07;3.97;;;2.30;;
19251;SDS011;9760;50.944;5.304;2023-06-24T10:24:32;5.30;;;2.43;;
19251;SDS011;9760;50.944;5.304;2023-06-24T10:27:02;6.47;;;2.30;;
19251;SDS011;9760;50.944;5.304;2023-06-24T10:29:32;4.47;;;2.40;;
19251;SDS011;9760;50.944;5.304;2023-06-24T10:32:06;11.60;;;3.17;;
19251;SDS011;9760;50.944;5.304;2023-06-24T10:34:39;3.03;;;2.00;;
19251;SDS011;9760;50.944;5.304;2023-06-24T10:37:20;5.07;;;2.20;;
19251;SDS011;9760;50.944;5.304;2023-06-24T10:39:59;3.90;;;2.10;;
19251;SDS011;9760;50.944;5.304;2023-06-24T10:47:34;11.17;;;2.20;;
19251;SDS011;9760;50.944;5.304;2023-06-24T10:50:01;2.47;;;1.90;;
19251;SDS011;9760;50.944;5.304;2023-06-24T10:52:27;3.10;;;2.10;;
19251;SDS011;9760;50.944;5.304;2023-06-24T10:54:54;3.93;;;2.43;;
19251;SDS011;9760;50.944;5.304;2023-06-24T10:57:25;2.70;;;1.80;;
19251;SDS011;9760;50.944;5.304;2023-06-24T10:59:53;6.33;;;2.20;;
19251;SDS011;9760;50.944;5.304;2023-06-24T11:02:21;3.60;;;2.10;;
19251;SDS011;9760;50.944;5.304;2023-06-24T11:04:50;3.23;;;2.00;;
19251;SDS011;9760;50.944;5.304;2023-06-24T11:07:23;6.97;;;2.00;;
19251;SDS011;9760;50.944;5.304;2023-06-24T11:09:54;3.83;;;2.40;;
19251;SDS011;9760;50.944;5.304;2023-06-24T11:12:29;3.07;;;2.03;;
19251;SDS011;9760;50.944;5.304;2023-06-24T11:14:57;5.90;;;2.20;;
19251;SDS011;9760;50.944;5.304;2023-06-24T11:17:24;2.57;;;2.03;;
19251;SDS011;9760;50.944;5.304;2023-06-24T11:19:52;4.27;;;2.20;;
19251;SDS011;9760;50.944;5.304;2023-06-24T11:22:22;7.90;;;2.20;;
19251;SDS011;9760;50.944;5.304;2023-06-24T11:24:48;6.10;;;2.20;;
19251;SDS011;9760;50.944;5.304;2023-06-24T11:27:14;4.50;;;2.20;;
19251;SDS011;9760;50.944;5.304;2023-06-24T11:29:40;3.37;;;2.03;;
19251;SDS011;9760;50.944;5.304;2023-06-24T11:32:09;7.07;;;1.90;;
19251;SDS011;9760;50.944;5.304;2023-06-24T11:34:35;6.80;;;2.00;;
19251;SDS011;9760;50.944;5.304;2023-06-24T11:39:37;4.03;;;1.73;;
19251;SDS011;9760;50.944;5.304;2023-06-24T11:42:05;2.23;;;1.67;;
19251;SDS011;9760;50.944;5.304;2023-06-24T11:44:31;3.47;;;2.20;;
19251;SDS011;9760;50.944;5.304;2023-06-24T11:47:06;3.00;;;2.00;;
19251;SDS011;9760;50.944;5.304;2023-06-24T11:49:49;3.60;;;2.20;;
19251;SDS011;9760;50.944;5.304;2023-06-24T11:52:17;4.00;;;2.23;;
19251;SDS011;9760;50.944;5.304;2023-06-24T11:54:43;4.07;;;1.83;;
19251;SDS011;9760;50.944;5.304;2023-06-24T11:57:09;3.43;;;1.80;;
19251;SDS011;9760;50.944;5.304;2023-06-24T11:59:35;4.97;;;2.10;;
19251;SDS011;9760;50.944;5.304;2023-06-24T12:02:01;2.67;;;1.97;;
19251;SDS011;9760;50.944;5.304;2023-06-24T12:04:31;6.83;;;2.60;;
19251;SDS011;9760;50.944;5.304;2023-06-24T12:06:57;6.33;;;2.03;;
19251;SDS011;9760;50.944;5.304;2023-06-24T12:09:23;3.57;;;2.20;;
19251;SDS011;9760;50.944;5.304;2023-06-24T12:11:49;4.23;;;2.00;;
19251;SDS011;9760;50.944;5.304;2023-06-24T12:14:16;3.10;;;2.23;;
19251;SDS011;9760;50.944;5.304;2023-06-24T12:16:42;4.63;;;2.17;;
19251;SDS011;9760;50.944;5.304;2023-06-24T12:19:07;3.43;;;2.10;;
19251;SDS011;9760;50.944;5.304;2023-06-24T12:21:34;5.80;;;2.20;;
19251;SDS011;9760;50.944;5.304;2023-06-24T12:24:00;7.03;;;2.30;;
19251;SDS011;9760;50.944;5.304;2023-06-24T12:26:29;2.63;;;1.90;;
19251;SDS011;9760;50.944;5.304;2023-06-24T12:28:54;4.70;;;1.83;;
19251;SDS011;9760;50.944;5.304;2023-06-24T12:31:21;4.07;;;2.40;;
19251;SDS011;9760;50.944;5.304;2023-06-24T12:33:47;4.07;;;2.10;;
19251;SDS011;9760;50.944;5.304;2023-06-24T12:36:13;3.57;;;1.93;;
19251;SDS011;9760;50.944;5.304;2023-06-24T12:38:38;5.03;;;2.23;;
19251;SDS011;9760;50.944;5.304;2023-06-24T12:41:05;3.43;;;1.80;;
19251;SDS011;9760;50.944;5.304;2023-06-24T12:43:31;6.53;;;1.97;;
19251;SDS011;9760;50.944;5.304;2023-06-24T12:45:57;5.33;;;2.13;;
19251;SDS011;9760;50.944;5.304;2023-06-24T12:48:22;6.70;;;1.73;;
19251;SDS011;9760;50.944;5.304;2023-06-24T12:50:48;3.10;;;1.93;;
19251;SDS011;9760;50.944;5.304;2023-06-24T12:53:17;2.23;;;1.50;;
19251;SDS011;9760;50.944;5.304;2023-06-24T12:55:44;3.13;;;1.53;;
19251;SDS011;9760;50.944;5.304;2023-06-24T12:58:09;3.93;;;1.73;;
19251;SDS011;9760;50.944;5.304;2023-06-24T13:00:35;2.10;;;1.60;;
19251;SDS011;9760;50.944;5.304;2023-06-24T13:03:00;3.37;;;2.00;;
19251;SDS011;9760;50.944;5.304;2023-06-24T13:05:26;2.57;;;1.83;;
19251;SDS011;9760;50.944;5.304;2023-06-24T13:07:52;2.37;;;1.50;;
19251;SDS011;9760;50.944;5.304;2023-06-24T13:10:17;2.73;;;1.90;;
19251;SDS011;9760;50.944;5.304;2023-06-24T13:12:43;1.80;;;1.60;;
19251;SDS011;9760;50.944;5.304;2023-06-24T13:15:09;3.90;;;1.90;;
19251;SDS011;9760;50.944;5.304;2023-06-24T13:17:35;2.37;;;1.70;;
19251;SDS011;9760;50.944;5.304;2023-06-24T13:20:01;2.20;;;1.50;;
19251;SDS011;9760;50.944;5.304;2023-06-24T13:22:29;2.80;;;2.00;;
19251;SDS011;9760;50.944;5.304;2023-06-24T13:24:56;3.30;;;1.70;;
19251;SDS011;9760;50.944;5.304;2023-06-24T13:27:21;4.50;;;1.73;;
19251;SDS011;9760;50.944;5.304;2023-06-24T13:29:47;3.13;;;1.50;;
19251;SDS011;9760;50.944;5.304;2023-06-24T13:32:13;3.93;;;1.93;;
19251;SDS011;9760;50.944;5.304;2023-06-24T13:34:38;2.77;;;1.60;;
19251;SDS011;9760;50.944;5.304;2023-06-24T13:37:04;2.80;;;1.80;;
19251;SDS011;9760;50.944;5.304;2023-06-24T13:39:30;3.87;;;1.70;;
19251;SDS011;9760;50.944;5.304;2023-06-24T13:41:56;3.23;;;1.50;;
19251;SDS011;9760;50.944;5.304;2023-06-24T13:44:22;2.70;;;1.80;;
19251;SDS011;9760;50.944;5.304;2023-06-24T13:46:48;3.03;;;1.60;;
19251;SDS011;9760;50.944;5.304;2023-06-24T13:49:15;6.03;;;1.70;;
19251;SDS011;9760;50.944;5.304;2023-06-24T13:51:40;1.87;;;1.50;;
19251;SDS011;9760;50.944;5.304;2023-06-24T13:54:07;4.27;;;1.60;;
19251;SDS011;9760;50.944;5.304;2023-06-24T13:56:32;2.77;;;1.70;;
19251;SDS011;9760;50.944;5.304;2023-06-24T13:58:58;4.27;;;1.53;;
19251;SDS011;9760;50.944;5.304;2023-06-24T14:01:24;4.53;;;1.23;;
19251;SDS011;9760;50.944;5.304;2023-06-24T14:03:50;7.13;;;1.80;;
19251;SDS011;9760;50.944;5.304;2023-06-24T14:06:17;1.83;;;1.43;;
19251;SDS011;9760;50.944;5.304;2023-06-24T14:08:44;3.23;;;1.70;;
19251;SDS011;9760;50.944;5.304;2023-06-24T14:11:10;2.33;;;1.90;;
19251;SDS011;9760;50.944;5.304;2023-06-24T14:13:36;3.97;;;1.60;;
19251;SDS011;9760;50.944;5.304;2023-06-24T14:16:03;5.13;;;3.70;;
19251;SDS011;9760;50.944;5.304;2023-06-24T14:18:29;2.40;;;1.77;;
19251;SDS011;9760;50.944;5.304;2023-06-24T14:21:01;4.00;;;1.80;;
19251;SDS011;9760;50.944;5.304;2023-06-24T14:23:28;3.13;;;1.80;;
19251;SDS011;9760;50.944;5.304;2023-06-24T14:25:55;4.00;;;1.87;;
19251;SDS011;9760;50.944;5.304;2023-06-24T14:28:21;1.90;;;1.47;;
19251;SDS011;9760;50.944;5.304;2023-06-24T14:30:47;3.30;;;1.67;;
19251;SDS011;9760;50.944;5.304;2023-06-24T14:33:13;3.57;;;1.63;;
19251;SDS011;9760;50.944;5.304;2023-06-24T14:35:39;2.23;;;1.50;;
19251;SDS011;9760;50.944;5.304;2023-06-24T14:38:05;4.80;;;1.47;;
19251;SDS011;9760;50.944;5.304;2023-06-24T14:40:31;2.23;;;1.70;;
19251;SDS011;9760;50.944;5.304;2023-06-24T14:42:57;4.10;;;1.77;;
19251;SDS011;9760;50.944;5.304;2023-06-24T14:45:23;2.23;;;1.63;;
19251;SDS011;9760;50.944;5.304;2023-06-24T14:47:49;3.60;;;1.63;;
19251;SDS011;9760;50.944;5.304;2023-06-24T14:50:15;3.53;;;1.83;;
19251;SDS011;9760;50.944;5.304;2023-06-24T14:52:41;5.27;;;1.97;;
19251;SDS011;9760;50.944;5.304;2023-06-24T14:55:06;2.67;;;2.03;;
19251;SDS011;9760;50.944;5.304;2023-06-24T14:57:32;8.87;;;1.90;;
19251;SDS011;9760;50.944;5.304;2023-06-24T14:59:58;6.10;;;1.70;;
19251;SDS011;9760;50.944;5.304;2023-06-24T15:02:24;3.83;;;1.70;;
19251;SDS011;9760;50.944;5.304;2023-06-24T15:04:51;2.80;;;1.57;;
19251;SDS011;9760;50.944;5.304;2023-06-24T15:07:16;2.50;;;1.70;;
19251;SDS011;9760;50.944;5.304;2023-06-24T15:09:42;5.03;;;1.90;;